createdAt,value
2018-11-26T00:01:28.757Z,6.30
2018-11-26T00:03:56.522Z,6.30
2018-11-26T00:06:24.482Z,6.40
2018-11-26T00:08:52.325Z,6.40
2018-11-26T00:11:37.070Z,6.40
2018-11-26T00:14:05.270Z,6.30
2018-11-26T00:16:33.126Z,6.20
2018-11-26T00:19:00.897Z,6.30
2018-11-26T00:21:28.741Z,6.20
2018-11-26T00:23:56.578Z,6.20
2018-11-26T00:26:24.374Z,6.20
2018-11-26T00:28:52.398Z,6.20
2018-11-26T00:31:20.234Z,6.20
2018-11-26T00:33:48.224Z,6.10
2018-11-26T00:36:16.325Z,6.10
2018-11-26T00:38:44.060Z,6.10
2018-11-26T00:41:11.939Z,6.20
2018-11-26T00:43:39.890Z,6.30
2018-11-26T00:46:08.015Z,6.40
2018-11-26T00:48:35.888Z,6.20
2018-11-26T00:51:04.047Z,6.30
2018-11-26T00:53:31.789Z,6.40
2018-11-26T00:55:59.468Z,6.50
2018-11-26T00:58:27.137Z,6.50
2018-11-26T01:00:55.066Z,6.60
2018-11-26T01:03:23.164Z,6.70
2018-11-26T01:05:51.172Z,6.60
2018-11-26T01:08:19.189Z,6.50
2018-11-26T01:10:46.961Z,6.70
2018-11-26T01:13:14.853Z,6.70
2018-11-26T01:15:42.543Z,6.70
2018-11-26T01:18:10.494Z,6.60
2018-11-26T01:20:38.199Z,6.60
2018-11-26T01:23:06.115Z,6.50
2018-11-26T01:25:33.888Z,6.40
2018-11-26T01:28:01.797Z,6.50
2018-11-26T01:30:29.495Z,6.50
2018-11-26T01:32:57.221Z,6.50
2018-11-26T01:35:26.012Z,6.40
2018-11-26T01:37:53.820Z,6.40
2018-11-26T01:40:26.992Z,6.50
2018-11-26T01:42:55.403Z,6.40
2018-11-26T01:45:23.101Z,6.40
2018-11-26T01:47:50.992Z,6.50
2018-11-26T01:50:18.724Z,6.50
2018-11-26T01:52:46.465Z,6.50
2018-11-26T01:55:14.402Z,6.40
2018-11-26T01:57:42.278Z,6.50
2018-11-26T02:00:16.335Z,6.40
2018-11-26T02:02:44.031Z,6.30
2018-11-26T02:05:11.830Z,6.30
2018-11-26T02:07:39.806Z,6.30
2018-11-26T02:10:09.180Z,6.40
2018-11-26T02:12:37.032Z,6.40
2018-11-26T02:15:06.097Z,6.40
2018-11-26T02:17:33.943Z,6.50
2018-11-26T02:20:02.192Z,6.60
2018-11-26T02:22:30.139Z,6.50
2018-11-26T02:24:57.949Z,6.40
2018-11-26T02:27:25.870Z,6.30
2018-11-26T02:29:53.854Z,6.30
2018-11-26T02:32:21.497Z,6.20
2018-11-26T02:34:49.306Z,6.10
2018-11-26T02:37:17.124Z,6.10
2018-11-26T02:39:45.136Z,6.20
2018-11-26T02:42:13.090Z,6.10
2018-11-26T02:44:41.009Z,6.00
2018-11-26T02:47:14.420Z,6.00
2018-11-26T02:49:42.579Z,6.10
2018-11-26T02:52:10.217Z,6.20
2018-11-26T02:54:38.022Z,6.30
2018-11-26T02:57:06.121Z,6.40
2018-11-26T02:59:33.790Z,6.40
2018-11-26T03:02:01.670Z,6.40
2018-11-26T03:04:30.114Z,6.30
2018-11-26T03:06:57.825Z,6.20
2018-11-26T03:09:25.560Z,6.10
2018-11-26T03:11:53.293Z,6.20
2018-11-26T03:14:21.011Z,6.20
2018-11-26T03:16:48.813Z,6.20
2018-11-26T03:19:16.502Z,6.30
2018-11-26T03:21:44.093Z,6.20
2018-11-26T03:24:11.865Z,6.10
2018-11-26T03:26:39.604Z,5.90
2018-11-26T03:29:07.296Z,5.80
2018-11-26T03:31:34.992Z,5.80
2018-11-26T03:34:02.821Z,5.80
2018-11-26T03:36:30.671Z,5.80
2018-11-26T03:38:58.288Z,5.90
2018-11-26T03:41:25.945Z,5.90
2018-11-26T03:43:53.648Z,6.00
2018-11-26T03:46:21.389Z,6.10
2018-11-26T03:48:49.082Z,6.10
2018-11-26T03:51:16.807Z,6.10
2018-11-26T03:53:45.145Z,6.10
2018-11-26T03:56:13.206Z,6.10
2018-11-26T03:58:40.902Z,6.10
2018-11-26T04:01:08.505Z,6.10
2018-11-26T04:03:36.483Z,6.10
2018-11-26T04:06:04.530Z,6.10
2018-11-26T04:08:32.306Z,6.10
2018-11-26T04:11:00.161Z,6.10
2018-11-26T04:13:29.322Z,6.20
2018-11-26T04:15:59.388Z,6.20
2018-11-26T04:18:27.070Z,6.20
2018-11-26T04:20:54.695Z,6.20
2018-11-26T04:23:22.694Z,6.20
2018-11-26T04:25:51.002Z,6.30
2018-11-26T04:28:18.644Z,6.30
2018-11-26T04:30:46.347Z,6.20
2018-11-26T04:33:15.415Z,6.30
2018-11-26T04:35:43.191Z,6.40
2018-11-26T04:38:10.890Z,6.30
2018-11-26T04:40:38.963Z,6.30
2018-11-26T04:43:06.723Z,6.40
2018-11-26T04:45:34.442Z,6.20
2018-11-26T04:48:02.331Z,6.30
2018-11-26T04:50:30.226Z,6.40
2018-11-26T04:52:58.123Z,6.40
2018-11-26T04:55:25.861Z,6.50
2018-11-26T04:57:53.507Z,6.50
2018-11-26T05:00:21.398Z,6.70
2018-11-26T05:02:49.244Z,6.80
2018-11-26T05:05:17.061Z,6.80
2018-11-26T05:07:44.777Z,6.80
2018-11-26T05:10:13.930Z,6.80
2018-11-26T05:12:41.774Z,6.80
2018-11-26T05:15:10.814Z,6.80
2018-11-26T05:17:38.570Z,6.80
2018-11-26T05:20:11.674Z,6.80
2018-11-26T05:22:39.359Z,6.80
2018-11-26T05:25:08.847Z,6.80
2018-11-26T05:27:36.518Z,6.70
2018-11-26T05:30:05.780Z,6.70
2018-11-26T05:32:33.675Z,6.70
2018-11-26T05:35:01.571Z,6.70
2018-11-26T05:37:29.360Z,6.70
2018-11-26T05:39:57.208Z,6.70
2018-11-26T05:42:28.765Z,6.80
2018-11-26T05:44:52.793Z,6.80
2018-11-26T05:47:20.621Z,6.80
2018-11-26T05:49:48.322Z,6.80
2018-11-26T05:52:16.125Z,6.70
2018-11-26T05:54:43.918Z,6.80
2018-11-26T05:57:11.802Z,6.80
2018-11-26T05:59:39.731Z,6.80
2018-11-26T06:02:07.635Z,6.90
2018-11-26T06:04:35.380Z,6.90
2018-11-26T06:07:03.378Z,6.90
2018-11-26T06:09:31.236Z,6.70
2018-11-26T06:11:59.030Z,6.70
2018-11-26T06:14:27.047Z,6.60
2018-11-26T06:16:54.715Z,6.50
2018-11-26T06:19:22.782Z,6.40
2018-11-26T06:21:50.594Z,6.30
2018-11-26T06:24:18.195Z,6.30
2018-11-26T06:26:45.942Z,6.30
2018-11-26T06:29:13.925Z,6.10
2018-11-26T06:31:41.744Z,6.00
2018-11-26T06:34:09.530Z,6.00
2018-11-26T06:36:37.300Z,6.00
2018-11-26T06:39:07.629Z,5.90
2018-11-26T06:41:35.326Z,5.90
2018-11-26T06:44:03.254Z,5.90
2018-11-26T06:46:30.897Z,5.90
2018-11-26T06:48:58.601Z,6.00
2018-11-26T06:51:26.275Z,6.00
2018-11-26T06:53:53.977Z,5.90
2018-11-26T06:56:21.667Z,5.80
2018-11-26T06:58:49.350Z,5.80
2018-11-26T07:01:17.058Z,5.80
2018-11-26T07:03:44.787Z,5.80
2018-11-26T07:06:12.595Z,5.90
2018-11-26T07:08:40.375Z,5.90
2018-11-26T07:11:14.518Z,5.90
2018-11-26T07:13:42.547Z,5.90
2018-11-26T07:16:10.572Z,5.90
2018-11-26T07:18:38.595Z,5.80
2018-11-26T07:21:06.673Z,5.80
2018-11-26T07:23:34.542Z,5.70
2018-11-26T07:26:02.661Z,5.80
2018-11-26T07:28:30.331Z,5.70
2018-11-26T07:30:58.082Z,5.80
2018-11-26T07:33:26.907Z,5.70
2018-11-26T07:35:54.709Z,5.70
2018-11-26T07:38:22.631Z,5.60
2018-11-26T07:40:50.329Z,5.60
2018-11-26T07:43:18.004Z,5.70
2018-11-26T07:45:45.953Z,5.80
2018-11-26T07:48:14.889Z,5.80
2018-11-26T07:50:42.671Z,5.70
2018-11-26T07:53:11.498Z,5.60
2018-11-26T07:55:40.222Z,5.60
2018-11-26T07:58:08.170Z,5.70
2018-11-26T08:00:35.938Z,5.60
2018-11-26T08:03:03.679Z,5.70
2018-11-26T08:05:31.531Z,5.70
2018-11-26T08:07:59.650Z,5.60
2018-11-26T08:10:27.454Z,5.50
2018-11-26T08:12:55.219Z,5.50
2018-11-26T08:15:24.722Z,5.50
2018-11-26T08:17:52.554Z,5.60
2018-11-26T08:20:32.627Z,5.60
2018-11-26T08:23:00.497Z,5.60
2018-11-26T08:25:28.338Z,5.50
2018-11-26T08:27:56.038Z,5.50
2018-11-26T08:30:25.152Z,5.50
2018-11-26T08:32:57.170Z,5.40
2018-11-26T08:35:25.522Z,5.40
2018-11-26T08:40:04.806Z,5.50
2018-11-26T08:44:40.743Z,5.60
2018-11-26T08:47:14.142Z,5.40
2018-11-26T08:49:41.963Z,5.40
2018-11-26T08:52:09.797Z,5.50
2018-11-26T08:54:37.588Z,5.50
2018-11-26T08:57:05.521Z,5.60
2018-11-26T08:59:37.335Z,5.50
2018-11-26T09:02:09.469Z,5.60
2018-11-26T09:04:43.078Z,5.70
2018-11-26T09:07:10.848Z,5.80
2018-11-26T09:09:38.561Z,5.80
2018-11-26T09:12:07.329Z,5.80
2018-11-26T09:14:34.942Z,5.80
2018-11-26T09:17:02.553Z,5.80
2018-11-26T09:19:30.130Z,5.80
2018-11-26T09:21:57.766Z,5.90
2018-11-26T09:24:25.352Z,5.90
2018-11-26T09:26:52.962Z,5.80
2018-11-26T09:29:20.514Z,5.70
2018-11-26T09:31:48.097Z,5.70
2018-11-26T09:34:15.829Z,5.70
2018-11-26T09:36:44.234Z,5.70
2018-11-26T09:39:11.894Z,5.70
2018-11-26T09:41:40.240Z,5.80
2018-11-26T09:44:07.771Z,5.70
2018-11-26T09:46:35.742Z,5.80
2018-11-26T09:49:03.527Z,5.80
2018-11-26T09:51:31.150Z,5.80
2018-11-26T09:53:58.754Z,5.80
2018-11-26T09:56:27.038Z,5.80
2018-11-26T09:58:54.606Z,5.90
2018-11-26T10:01:22.193Z,5.80
2018-11-26T10:03:49.753Z,5.90
2018-11-26T10:06:17.338Z,6.10
2018-11-26T10:08:44.888Z,6.20
2018-11-26T10:11:12.461Z,6.10
2018-11-26T10:13:40.004Z,6.00
2018-11-26T10:16:07.756Z,6.00
2018-11-26T10:18:35.334Z,6.00
2018-11-26T10:21:02.919Z,6.20
2018-11-26T10:23:30.484Z,6.20
2018-11-26T10:25:58.300Z,6.20
2018-11-26T10:28:25.616Z,6.20
2018-11-26T10:30:54.288Z,6.20
2018-11-26T10:33:21.878Z,6.20
2018-11-26T10:35:49.510Z,6.10
2018-11-26T10:38:17.103Z,6.10
2018-11-26T10:40:45.366Z,6.00
2018-11-26T10:43:12.948Z,6.00
2018-11-26T10:45:40.674Z,6.10
2018-11-26T10:48:08.269Z,6.10
2018-11-26T10:50:35.897Z,6.10
2018-11-26T10:53:03.506Z,6.10
2018-11-26T10:55:34.124Z,6.20
2018-11-26T10:58:01.914Z,6.30
2018-11-26T11:00:35.225Z,6.40
2018-11-26T11:03:02.857Z,6.30
2018-11-26T11:05:30.558Z,6.30
2018-11-26T11:07:58.152Z,6.30
2018-11-26T11:10:29.305Z,6.30
2018-11-26T11:12:56.966Z,6.30
2018-11-26T11:15:24.593Z,6.20
2018-11-26T11:17:52.245Z,6.30
2018-11-26T11:20:21.050Z,6.30
2018-11-26T11:22:48.652Z,6.40
2018-11-26T11:25:16.957Z,6.40
2018-11-26T11:27:44.629Z,6.40
2018-11-26T11:30:16.200Z,6.40
2018-11-26T11:32:43.799Z,6.40
2018-11-26T11:35:12.266Z,6.30
2018-11-26T11:37:46.700Z,6.40
2018-11-26T11:40:17.760Z,6.60
2018-11-26T11:42:45.367Z,6.60
2018-11-26T11:45:13.289Z,6.60
2018-11-26T11:47:41.023Z,6.50
2018-11-26T11:50:10.038Z,6.60
2018-11-26T11:52:37.747Z,6.70
2018-11-26T11:55:10.718Z,6.70
2018-11-26T11:57:38.578Z,6.70
2018-11-26T12:00:12.576Z,6.50
2018-11-26T12:02:41.240Z,6.50
2018-11-26T12:05:11.092Z,6.50
2018-11-26T12:07:38.703Z,6.40
2018-11-26T12:10:08.147Z,6.30
2018-11-26T12:12:36.794Z,6.30
2018-11-26T12:15:07.567Z,6.30
2018-11-26T12:17:35.232Z,6.40
2018-11-26T12:20:02.943Z,6.30
2018-11-26T12:22:30.565Z,6.30
2018-11-26T12:24:58.155Z,6.30
2018-11-26T12:27:25.791Z,6.30
2018-11-26T12:29:53.431Z,6.30
2018-11-26T12:32:22.060Z,6.20
2018-11-26T12:34:49.715Z,6.30
2018-11-26T12:37:17.524Z,6.40
2018-11-26T12:39:45.121Z,6.40
2018-11-26T12:42:13.379Z,6.40
2018-11-26T12:44:48.128Z,6.40
2018-11-26T12:47:16.451Z,6.40
2018-11-26T12:50:03.846Z,6.40
2018-11-26T12:52:31.460Z,6.40
2018-11-26T12:54:59.134Z,6.40
2018-11-26T12:57:26.745Z,6.40
2018-11-26T12:59:54.384Z,6.40
2018-11-26T13:02:22.011Z,6.40
2018-11-26T13:04:49.619Z,6.20
2018-11-26T13:07:17.232Z,6.10
2018-11-26T13:09:44.835Z,6.00
2018-11-26T13:12:12.447Z,5.90
2018-11-26T13:14:40.061Z,6.00
2018-11-26T13:17:07.735Z,6.00
2018-11-26T13:19:35.327Z,6.10
2018-11-26T13:22:02.961Z,6.20
2018-11-26T13:24:30.550Z,6.10
2018-11-26T13:26:58.131Z,6.10
2018-11-26T13:29:25.682Z,6.10
2018-11-26T13:31:53.295Z,6.20
2018-11-26T13:34:20.859Z,6.20
2018-11-26T13:37:11.959Z,6.30
2018-11-26T13:39:39.507Z,6.30
2018-11-26T13:42:07.113Z,6.40
2018-11-26T13:44:34.680Z,6.40
2018-11-26T13:47:02.313Z,6.40
2018-11-26T13:49:29.863Z,6.40
2018-11-26T13:51:57.422Z,6.40
2018-11-26T13:54:24.970Z,6.40
2018-11-26T13:56:52.523Z,6.40
2018-11-26T13:59:20.119Z,6.50
2018-11-26T14:01:47.687Z,6.50
2018-11-26T14:04:15.258Z,6.50
2018-11-26T14:06:45.746Z,6.40
2018-11-26T14:09:13.327Z,6.40
2018-11-26T14:11:40.944Z,6.30
2018-11-26T14:14:08.720Z,6.30
2018-11-26T14:16:36.351Z,6.40
2018-11-26T14:19:03.959Z,6.40
2018-11-26T14:21:33.637Z,6.40
2018-11-26T14:24:01.252Z,6.40
2018-11-26T14:26:28.801Z,6.40
2018-11-26T14:28:56.378Z,6.30
2018-11-26T14:31:23.960Z,6.30
2018-11-26T14:33:51.564Z,6.30
2018-11-26T14:36:19.216Z,6.40
2018-11-26T14:38:46.803Z,6.50
2018-11-26T14:41:14.376Z,6.40
2018-11-26T14:43:42.024Z,6.40
2018-11-26T14:46:09.591Z,6.50
2018-11-26T14:48:37.201Z,6.40
2018-11-26T14:51:05.159Z,6.40
2018-11-26T14:53:32.783Z,6.40
2018-11-26T14:56:00.437Z,6.50
2018-11-26T14:58:28.064Z,6.60
2018-11-26T15:01:17.016Z,6.60
2018-11-26T15:03:44.639Z,6.40
2018-11-26T15:09:07.835Z,6.40
2018-11-26T15:11:35.412Z,6.40
2018-11-26T15:14:03.213Z,6.40
2018-11-26T15:16:30.841Z,6.40
2018-11-26T15:18:58.492Z,6.30
2018-11-26T15:21:26.086Z,6.20
2018-11-26T15:23:53.851Z,6.30
2018-11-26T15:26:21.471Z,6.20
2018-11-26T15:28:49.093Z,6.40
2018-11-26T15:31:16.837Z,6.40
2018-11-26T15:33:44.467Z,6.40
2018-11-26T15:36:12.088Z,6.30
2018-11-26T15:38:39.659Z,6.30
2018-11-26T15:41:14.647Z,6.20
2018-11-26T15:43:42.286Z,6.10
2018-11-26T15:46:09.919Z,6.10
2018-11-26T15:48:38.090Z,6.10
2018-11-26T15:51:06.222Z,6.00
2018-11-26T15:53:34.285Z,6.10
2018-11-26T15:56:02.058Z,6.00
2018-11-26T15:58:29.763Z,6.00
2018-11-26T16:00:57.550Z,6.00
2018-11-26T16:03:25.287Z,6.10
2018-11-26T16:05:53.137Z,6.00
2018-11-26T16:08:20.924Z,6.00
2018-11-26T16:10:59.777Z,6.00
2018-11-26T16:13:33.653Z,6.00
2018-11-26T16:16:01.989Z,6.00
2018-11-26T16:18:30.335Z,5.90
2018-11-26T16:20:59.182Z,6.00
2018-11-26T16:23:28.041Z,6.10
2018-11-26T16:25:56.317Z,6.00
2018-11-26T16:28:24.441Z,6.00
2018-11-26T16:30:53.506Z,6.10
2018-11-26T16:33:21.331Z,6.10
2018-11-26T16:35:49.178Z,6.00
2018-11-26T16:38:17.271Z,6.10
2018-11-26T16:40:47.212Z,6.20
2018-11-26T16:43:14.948Z,6.10
2018-11-26T16:45:42.582Z,6.00
2018-11-26T16:48:10.220Z,5.90
2018-11-26T16:50:37.883Z,5.70
2018-11-26T16:53:06.428Z,5.60
2018-11-26T16:55:34.674Z,5.50
2018-11-26T16:58:03.698Z,5.40
2018-11-26T17:00:31.953Z,5.40
2018-11-26T17:03:00.681Z,5.40
2018-11-26T17:05:33.958Z,5.20
2018-11-26T17:08:02.027Z,5.20
2018-11-26T17:10:31.538Z,5.20
2018-11-26T17:13:00.927Z,5.20
2018-11-26T17:15:31.666Z,5.10
2018-11-26T17:17:59.595Z,5.20
2018-11-26T17:20:27.479Z,5.30
2018-11-26T17:22:55.355Z,5.20
2018-11-26T17:25:23.160Z,5.20
2018-11-26T17:27:50.774Z,5.20
2018-11-26T17:30:21.743Z,5.30
2018-11-26T17:32:50.928Z,5.40
2018-11-26T17:35:18.579Z,5.40
2018-11-26T17:37:46.243Z,5.40
2018-11-26T17:40:19.989Z,5.50
2018-11-26T17:42:47.687Z,5.50
2018-11-26T17:45:15.995Z,5.50
2018-11-26T17:47:45.256Z,5.50
2018-11-26T17:50:18.169Z,5.50
2018-11-26T17:52:45.767Z,5.50
2018-11-26T17:55:14.088Z,5.70
2018-11-26T17:57:41.782Z,5.70
2018-11-26T18:00:11.275Z,5.70
2018-11-26T18:02:39.087Z,5.80
2018-11-26T18:05:12.597Z,5.60
2018-11-26T18:07:40.711Z,5.60
2018-11-26T18:10:13.392Z,5.40
2018-11-26T18:12:41.616Z,5.50
2018-11-26T18:15:11.880Z,5.50
2018-11-26T18:17:40.460Z,5.40
2018-11-26T18:20:12.663Z,5.40
2018-11-26T18:22:41.049Z,5.40
2018-11-26T18:25:10.524Z,5.30
2018-11-26T18:27:40.952Z,5.30
2018-11-26T18:30:16.559Z,5.40
2018-11-26T18:32:44.584Z,5.60
2018-11-26T18:35:12.656Z,5.70
2018-11-26T18:37:40.544Z,5.90
2018-11-26T18:40:12.086Z,5.90
2018-11-26T18:42:39.896Z,5.80
2018-11-26T18:45:10.922Z,5.80
2018-11-26T18:47:38.663Z,5.80
2018-11-26T18:50:12.878Z,5.80
2018-11-26T18:52:40.664Z,5.80
2018-11-26T18:55:10.040Z,5.80
2018-11-26T18:57:38.147Z,5.80
2018-11-26T19:00:17.032Z,5.90
2018-11-26T19:02:44.720Z,5.90
2018-11-26T19:05:13.801Z,5.80
2018-11-26T19:07:41.696Z,5.80
2018-11-26T19:10:13.427Z,5.80
2018-11-26T19:12:42.043Z,6.00
2018-11-26T19:15:20.789Z,5.90
2018-11-26T19:17:50.507Z,5.90
2018-11-26T19:20:18.500Z,5.80
2018-11-26T19:22:47.523Z,5.80
2018-11-26T19:28:04.804Z,5.90
2018-11-26T19:30:34.293Z,6.00
2018-11-26T19:33:02.707Z,5.90
2018-11-26T19:35:35.673Z,5.90
2018-11-26T19:38:09.283Z,5.80
2018-11-26T19:40:43.102Z,5.90
2018-11-26T19:43:16.337Z,5.90
2018-11-26T19:45:45.008Z,5.70
2018-11-26T19:48:13.831Z,5.70
2018-11-26T19:50:42.312Z,5.70
2018-11-26T19:53:11.923Z,5.70
2018-11-26T19:55:41.225Z,5.60
2018-11-26T19:58:09.613Z,5.70
2018-11-26T20:00:39.332Z,5.70
2018-11-26T20:03:15.572Z,5.80
2018-11-26T20:06:17.004Z,5.70
2018-11-26T20:08:52.792Z,5.70
2018-11-26T20:11:20.740Z,5.70
2018-11-26T20:13:49.446Z,5.80
2018-11-26T20:16:23.622Z,5.80
2018-11-26T20:18:52.463Z,5.90
2018-11-26T20:23:57.384Z,5.80
2018-11-26T20:26:25.593Z,5.80
2018-11-26T20:28:56.995Z,5.80
2018-11-26T20:31:22.407Z,5.80
2018-11-26T20:33:50.473Z,5.90
2018-11-26T20:36:19.365Z,5.80
2018-11-26T20:38:49.138Z,5.60
2018-11-26T20:44:02.787Z,5.60
2018-11-26T20:46:40.431Z,5.60
2018-11-26T20:49:09.277Z,5.70
2018-11-26T20:51:37.509Z,5.60
2018-11-26T20:54:06.300Z,5.70
2018-11-26T20:56:34.487Z,5.70
2018-11-26T20:59:15.827Z,5.70
2018-11-26T21:01:53.797Z,5.80
2018-11-26T21:04:28.605Z,5.80
2018-11-26T21:09:38.823Z,5.90
2018-11-26T21:12:06.740Z,5.90
2018-11-26T21:14:34.428Z,5.90
2018-11-26T21:17:02.531Z,5.90
2018-11-26T21:19:30.318Z,5.90
2018-11-26T21:21:58.531Z,5.90
2018-11-26T21:24:27.180Z,6.00
2018-11-26T21:27:07.774Z,5.90
2018-11-26T21:29:50.645Z,5.90
2018-11-26T21:32:29.193Z,5.90
2018-11-26T21:35:02.129Z,5.90
2018-11-26T21:37:32.235Z,5.90
2018-11-26T21:40:00.197Z,6.00
2018-11-26T21:42:28.427Z,6.00
2018-11-26T21:44:56.175Z,6.10
2018-11-26T21:47:24.136Z,6.20
2018-11-26T21:49:51.879Z,6.20
2018-11-26T21:52:19.702Z,6.30
2018-11-26T21:54:47.411Z,6.30
2018-11-26T21:57:15.272Z,6.40
2018-11-26T21:59:43.144Z,6.40
2018-11-26T22:02:11.000Z,6.40
2018-11-26T22:04:38.855Z,6.40
2018-11-26T22:07:06.856Z,6.30
2018-11-26T22:09:34.688Z,6.30
2018-11-26T22:12:02.623Z,6.40
2018-11-26T22:14:30.724Z,6.40
2018-11-26T22:16:58.759Z,6.40
2018-11-26T22:19:26.983Z,6.40
2018-11-26T22:21:55.937Z,6.40
2018-11-26T22:24:23.944Z,6.40
2018-11-26T22:26:51.587Z,6.40
2018-11-26T22:29:19.612Z,6.30
2018-11-26T22:31:47.407Z,6.40
2018-11-26T22:34:15.191Z,6.40
2018-11-26T22:36:45.280Z,6.40
2018-11-26T22:39:13.237Z,6.40
2018-11-26T22:41:41.055Z,6.30
2018-11-26T22:44:08.774Z,6.20
2018-11-26T22:46:36.654Z,6.00
2018-11-26T22:49:04.420Z,6.10
2018-11-26T22:51:32.211Z,6.20
2018-11-26T22:54:00.032Z,6.20
2018-11-26T22:56:31.044Z,6.10
2018-11-26T22:58:59.171Z,6.20
2018-11-26T23:01:27.356Z,6.30
2018-11-26T23:03:55.565Z,6.20
2018-11-26T23:06:23.540Z,6.20
2018-11-26T23:08:51.516Z,6.10
2018-11-26T23:11:19.474Z,6.10
2018-11-26T23:13:47.398Z,6.10
2018-11-26T23:16:15.567Z,6.10
2018-11-26T23:18:43.356Z,6.10
2018-11-26T23:21:11.159Z,6.00
2018-11-26T23:23:38.927Z,6.00
2018-11-26T23:26:06.703Z,6.00
2018-11-26T23:28:34.639Z,6.00
2018-11-26T23:31:02.539Z,6.00
2018-11-26T23:33:30.486Z,6.00
2018-11-26T23:35:58.535Z,6.10
2018-11-26T23:38:26.335Z,6.10
2018-11-26T23:40:54.107Z,6.10
2018-11-26T23:43:22.047Z,6.10
2018-11-26T23:45:49.880Z,6.10
2018-11-26T23:48:17.796Z,6.10
2018-11-26T23:50:45.647Z,6.00
2018-11-26T23:53:13.568Z,6.00
2018-11-26T23:55:41.353Z,5.90
2018-11-26T23:58:09.160Z,5.90
